sensor_id;sensor_type;location;lat;lon;timestamp;temperature;humidity
6379;DHT22;3222;48.858;10.128;2022-12-05T00:03:49;2.50;99.90
6379;DHT22;3222;48.858;10.128;2022-12-05T00:06:17;2.50;99.90
6379;DHT22;3222;48.858;10.128;2022-12-05T00:08:43;2.60;99.90
6379;DHT22;3222;48.858;10.128;2022-12-05T00:11:24;2.60;99.90
6379;DHT22;3222;48.858;10.128;2022-12-05T00:13:52;2.70;99.90
6379;DHT22;3222;48.858;10.128;2022-12-05T00:16:20;2.70;99.90
6379;DHT22;3222;48.858;10.128;2022-12-05T00:18:46;2.80;99.90
6379;DHT22;3222;48.858;10.128;2022-12-05T00:21:14;2.70;99.90
6379;DHT22;3222;48.858;10.128;2022-12-05T00:23:41;2.80;99.90
6379;DHT22;3222;48.858;10.128;2022-12-05T00:26:06;2.70;99.90
6379;DHT22;3222;48.858;10.128;2022-12-05T00:28:33;2.70;99.90
6379;DHT22;3222;48.858;10.128;2022-12-05T00:31:04;2.70;99.90
6379;DHT22;3222;48.858;10.128;2022-12-05T00:33:30;2.70;99.90
6379;DHT22;3222;48.858;10.128;2022-12-05T00:36:01;2.70;99.90
6379;DHT22;3222;48.858;10.128;2022-12-05T00:38:27;2.70;99.90
6379;DHT22;3222;48.858;10.128;2022-12-05T00:40:52;2.80;99.90
6379;DHT22;3222;48.858;10.128;2022-12-05T00:43:18;2.90;99.90
6379;DHT22;3222;48.858;10.128;2022-12-05T00:45:44;3.00;99.90
6379;DHT22;3222;48.858;10.128;2022-12-05T00:48:09;2.90;99.90
6379;DHT22;3222;48.858;10.128;2022-12-05T00:50:35;2.90;99.90
6379;DHT22;3222;48.858;10.128;2022-12-05T00:53:00;2.80;99.90
6379;DHT22;3222;48.858;10.128;2022-12-05T00:55:26;2.80;99.90
6379;DHT22;3222;48.858;10.128;2022-12-05T00:57:52;2.80;99.90
6379;DHT22;3222;48.858;10.128;2022-12-05T01:00:18;2.80;99.90
6379;DHT22;3222;48.858;10.128;2022-12-05T01:02:43;2.80;99.90
6379;DHT22;3222;48.858;10.128;2022-12-05T01:05:09;2.70;99.90
6379;DHT22;3222;48.858;10.128;2022-12-05T01:07:35;2.70;99.90
6379;DHT22;3222;48.858;10.128;2022-12-05T01:10:01;2.70;99.90
6379;DHT22;3222;48.858;10.128;2022-12-05T01:12:26;2.70;99.90
6379;DHT22;3222;48.858;10.128;2022-12-05T01:14:53;2.80;99.90
6379;DHT22;3222;48.858;10.128;2022-12-05T01:17:18;2.70;99.90
6379;DHT22;3222;48.858;10.128;2022-12-05T01:19:44;2.70;99.90
6379;DHT22;3222;48.858;10.128;2022-12-05T01:22:09;2.80;99.90
6379;DHT22;3222;48.858;10.128;2022-12-05T01:24:35;2.80;99.90
6379;DHT22;3222;48.858;10.128;2022-12-05T01:27:01;2.70;99.90
6379;DHT22;3222;48.858;10.128;2022-12-05T01:29:27;2.70;99.90
6379;DHT22;3222;48.858;10.128;2022-12-05T01:31:52;2.70;99.90
6379;DHT22;3222;48.858;10.128;2022-12-05T01:34:18;2.70;99.90
6379;DHT22;3222;48.858;10.128;2022-12-05T01:36:44;2.70;99.90
6379;DHT22;3222;48.858;10.128;2022-12-05T01:39:11;2.70;99.90
6379;DHT22;3222;48.858;10.128;2022-12-05T01:41:43;2.70;99.90
6379;DHT22;3222;48.858;10.128;2022-12-05T01:46:45;2.60;99.90
6379;DHT22;3222;48.858;10.128;2022-12-05T01:49:19;2.80;99.90
6379;DHT22;3222;48.858;10.128;2022-12-05T01:51:51;2.80;99.90
6379;DHT22;3222;48.858;10.128;2022-12-05T01:54:20;2.70;99.90
6379;DHT22;3222;48.858;10.128;2022-12-05T01:56:49;2.80;99.90
6379;DHT22;3222;48.858;10.128;2022-12-05T01:59:19;2.80;99.90
6379;DHT22;3222;48.858;10.128;2022-12-05T02:01:47;2.80;99.90
6379;DHT22;3222;48.858;10.128;2022-12-05T02:04:13;2.70;99.90
6379;DHT22;3222;48.858;10.128;2022-12-05T02:06:39;2.70;99.90
6379;DHT22;3222;48.858;10.128;2022-12-05T02:09:05;2.70;99.90
6379;DHT22;3222;48.858;10.128;2022-12-05T02:11:32;2.60;99.90
6379;DHT22;3222;48.858;10.128;2022-12-05T02:30:20;2.50;99.90
6379;DHT22;3222;48.858;10.128;2022-12-05T02:35:36;2.40;99.90
6379;DHT22;3222;48.858;10.128;2022-12-05T02:38:44;2.40;99.90
6379;DHT22;3222;48.858;10.128;2022-12-05T02:44:04;2.40;99.90
6379;DHT22;3222;48.858;10.128;2022-12-05T02:46:34;2.30;99.90
6379;DHT22;3222;48.858;10.128;2022-12-05T02:49:10;2.40;99.90
6379;DHT22;3222;48.858;10.128;2022-12-05T02:51:41;2.60;99.90
6379;DHT22;3222;48.858;10.128;2022-12-05T02:54:11;2.60;99.90
6379;DHT22;3222;48.858;10.128;2022-12-05T02:56:40;2.70;99.90
6379;DHT22;3222;48.858;10.128;2022-12-05T02:59:08;2.80;99.90
6379;DHT22;3222;48.858;10.128;2022-12-05T03:01:33;2.60;99.90
6379;DHT22;3222;48.858;10.128;2022-12-05T03:04:02;2.70;99.90
6379;DHT22;3222;48.858;10.128;2022-12-05T03:06:33;2.80;99.90
6379;DHT22;3222;48.858;10.128;2022-12-05T03:09:08;2.70;99.90
6379;DHT22;3222;48.858;10.128;2022-12-05T03:12:00;2.60;99.90
6379;DHT22;3222;48.858;10.128;2022-12-05T03:14:36;2.50;99.90
6379;DHT22;3222;48.858;10.128;2022-12-05T03:17:06;2.50;99.90
6379;DHT22;3222;48.858;10.128;2022-12-05T03:19:57;2.40;99.90
6379;DHT22;3222;48.858;10.128;2022-12-05T03:22:35;2.60;99.90
6379;DHT22;3222;48.858;10.128;2022-12-05T03:25:03;2.70;99.90
6379;DHT22;3222;48.858;10.128;2022-12-05T03:27:38;2.70;99.90
6379;DHT22;3222;48.858;10.128;2022-12-05T03:30:09;2.60;99.90
6379;DHT22;3222;48.858;10.128;2022-12-05T03:32:44;2.50;99.90
6379;DHT22;3222;48.858;10.128;2022-12-05T03:35:17;2.50;99.90
6379;DHT22;3222;48.858;10.128;2022-12-05T03:38:04;2.60;99.90
6379;DHT22;3222;48.858;10.128;2022-12-05T03:40:52;2.70;99.90
6379;DHT22;3222;48.858;10.128;2022-12-05T03:46:31;2.70;99.90
6379;DHT22;3222;48.858;10.128;2022-12-05T03:49:17;2.70;99.90
6379;DHT22;3222;48.858;10.128;2022-12-05T03:52:02;2.60;99.90
6379;DHT22;3222;48.858;10.128;2022-12-05T03:54:35;2.70;99.90
6379;DHT22;3222;48.858;10.128;2022-12-05T03:57:07;2.70;99.90
6379;DHT22;3222;48.858;10.128;2022-12-05T03:59:51;2.60;99.90
6379;DHT22;3222;48.858;10.128;2022-12-05T04:02:30;2.50;99.90
6379;DHT22;3222;48.858;10.128;2022-12-05T04:05:03;2.40;99.90
6379;DHT22;3222;48.858;10.128;2022-12-05T04:07:33;2.40;99.90
6379;DHT22;3222;48.858;10.128;2022-12-05T04:10:04;2.30;99.90
6379;DHT22;3222;48.858;10.128;2022-12-05T04:12:33;2.40;99.90
6379;DHT22;3222;48.858;10.128;2022-12-05T04:15:07;2.50;99.90
6379;DHT22;3222;48.858;10.128;2022-12-05T04:17:59;2.40;99.90
6379;DHT22;3222;48.858;10.128;2022-12-05T04:20:38;2.40;99.90
6379;DHT22;3222;48.858;10.128;2022-12-05T04:23:24;2.50;99.90
6379;DHT22;3222;48.858;10.128;2022-12-05T04:26:02;2.30;99.90
6379;DHT22;3222;48.858;10.128;2022-12-05T04:31:10;2.30;99.90
6379;DHT22;3222;48.858;10.128;2022-12-05T04:39:53;2.40;99.90
6379;DHT22;3222;48.858;10.128;2022-12-05T04:41:54;2.40;99.90
6379;DHT22;3222;48.858;10.128;2022-12-05T04:44:27;2.40;99.90
6379;DHT22;3222;48.858;10.128;2022-12-05T04:46:56;2.40;99.90
6379;DHT22;3222;48.858;10.128;2022-12-05T04:49:26;2.30;99.90
6379;DHT22;3222;48.858;10.128;2022-12-05T04:51:55;2.30;99.90
6379;DHT22;3222;48.858;10.128;2022-12-05T04:54:26;2.40;99.90
6379;DHT22;3222;48.858;10.128;2022-12-05T04:57:01;2.50;99.90
6379;DHT22;3222;48.858;10.128;2022-12-05T04:59:29;2.40;99.90
6379;DHT22;3222;48.858;10.128;2022-12-05T05:01:58;2.50;99.90
6379;DHT22;3222;48.858;10.128;2022-12-05T05:04:32;2.30;99.90
6379;DHT22;3222;48.858;10.128;2022-12-05T05:06:59;2.30;99.90
6379;DHT22;3222;48.858;10.128;2022-12-05T05:09:24;2.40;99.90
6379;DHT22;3222;48.858;10.128;2022-12-05T05:11:50;2.50;99.90
6379;DHT22;3222;48.858;10.128;2022-12-05T05:14:16;2.40;99.90
6379;DHT22;3222;48.858;10.128;2022-12-05T05:16:42;2.30;99.90
6379;DHT22;3222;48.858;10.128;2022-12-05T05:19:10;2.40;99.90
6379;DHT22;3222;48.858;10.128;2022-12-05T05:21:38;2.60;99.90
6379;DHT22;3222;48.858;10.128;2022-12-05T05:24:05;2.90;99.90
6379;DHT22;3222;48.858;10.128;2022-12-05T05:26:34;2.80;99.90
6379;DHT22;3222;48.858;10.128;2022-12-05T05:29:00;3.00;99.90
6379;DHT22;3222;48.858;10.128;2022-12-05T05:31:25;2.90;99.90
6379;DHT22;3222;48.858;10.128;2022-12-05T05:33:54;2.90;99.90
6379;DHT22;3222;48.858;10.128;2022-12-05T05:36:23;2.90;99.90
6379;DHT22;3222;48.858;10.128;2022-12-05T05:38:51;2.80;99.90
6379;DHT22;3222;48.858;10.128;2022-12-05T05:41:22;2.70;99.90
6379;DHT22;3222;48.858;10.128;2022-12-05T05:43:49;2.50;99.90
6379;DHT22;3222;48.858;10.128;2022-12-05T05:46:18;2.40;99.90
6379;DHT22;3222;48.858;10.128;2022-12-05T05:48:44;2.50;99.90
6379;DHT22;3222;48.858;10.128;2022-12-05T05:51:11;2.40;99.90
6379;DHT22;3222;48.858;10.128;2022-12-05T05:53:37;2.40;99.90
6379;DHT22;3222;48.858;10.128;2022-12-05T05:56:05;2.50;99.90
6379;DHT22;3222;48.858;10.128;2022-12-05T05:58:31;2.40;99.90
6379;DHT22;3222;48.858;10.128;2022-12-05T06:01:04;2.30;99.90
6379;DHT22;3222;48.858;10.128;2022-12-05T06:03:29;2.30;99.90
6379;DHT22;3222;48.858;10.128;2022-12-05T06:05:57;2.40;99.90
6379;DHT22;3222;48.858;10.128;2022-12-05T06:08:22;2.30;99.90
6379;DHT22;3222;48.858;10.128;2022-12-05T06:10:48;2.30;99.90
6379;DHT22;3222;48.858;10.128;2022-12-05T06:13:14;2.20;99.90
6379;DHT22;3222;48.858;10.128;2022-12-05T06:15:39;2.20;99.90
6379;DHT22;3222;48.858;10.128;2022-12-05T06:18:05;2.20;99.90
6379;DHT22;3222;48.858;10.128;2022-12-05T06:20:30;2.30;99.90
6379;DHT22;3222;48.858;10.128;2022-12-05T06:22:56;2.30;99.90
6379;DHT22;3222;48.858;10.128;2022-12-05T06:25:22;2.30;99.90
6379;DHT22;3222;48.858;10.128;2022-12-05T06:27:48;2.20;99.90
6379;DHT22;3222;48.858;10.128;2022-12-05T06:30:13;2.20;99.90
6379;DHT22;3222;48.858;10.128;2022-12-05T06:32:39;2.30;99.90
6379;DHT22;3222;48.858;10.128;2022-12-05T06:35:05;2.30;99.90
6379;DHT22;3222;48.858;10.128;2022-12-05T06:37:42;2.40;99.90
6379;DHT22;3222;48.858;10.128;2022-12-05T06:40:09;2.30;99.90
6379;DHT22;3222;48.858;10.128;2022-12-05T06:42:35;2.40;99.90
6379;DHT22;3222;48.858;10.128;2022-12-05T06:45:02;2.30;99.90
6379;DHT22;3222;48.858;10.128;2022-12-05T06:47:27;2.30;99.90
6379;DHT22;3222;48.858;10.128;2022-12-05T06:49:53;2.20;99.90
6379;DHT22;3222;48.858;10.128;2022-12-05T06:52:19;2.20;99.90
6379;DHT22;3222;48.858;10.128;2022-12-05T06:54:44;2.30;99.90
6379;DHT22;3222;48.858;10.128;2022-12-05T06:57:11;2.30;99.90
6379;DHT22;3222;48.858;10.128;2022-12-05T06:59:37;2.20;99.90
6379;DHT22;3222;48.858;10.128;2022-12-05T07:02:03;2.40;99.90
6379;DHT22;3222;48.858;10.128;2022-12-05T07:04:33;2.50;99.90
6379;DHT22;3222;48.858;10.128;2022-12-05T07:06:58;2.40;99.90
6379;DHT22;3222;48.858;10.128;2022-12-05T07:09:27;2.50;99.90
6379;DHT22;3222;48.858;10.128;2022-12-05T07:12:17;2.80;99.90
6379;DHT22;3222;48.858;10.128;2022-12-05T07:14:43;2.80;99.90
6379;DHT22;3222;48.858;10.128;2022-12-05T07:17:10;2.80;99.90
6379;DHT22;3222;48.858;10.128;2022-12-05T07:19:36;2.80;99.90
6379;DHT22;3222;48.858;10.128;2022-12-05T07:22:02;2.70;99.90
6379;DHT22;3222;48.858;10.128;2022-12-05T07:24:27;2.60;99.90
6379;DHT22;3222;48.858;10.128;2022-12-05T07:26:53;2.60;99.90
6379;DHT22;3222;48.858;10.128;2022-12-05T07:29:19;2.70;99.90
6379;DHT22;3222;48.858;10.128;2022-12-05T07:31:44;2.70;99.90
6379;DHT22;3222;48.858;10.128;2022-12-05T07:34:10;2.60;99.90
6379;DHT22;3222;48.858;10.128;2022-12-05T07:36:36;2.50;99.90
6379;DHT22;3222;48.858;10.128;2022-12-05T07:39:02;2.40;99.90
6379;DHT22;3222;48.858;10.128;2022-12-05T07:41:31;2.40;99.90
6379;DHT22;3222;48.858;10.128;2022-12-05T07:43:58;2.40;99.90
6379;DHT22;3222;48.858;10.128;2022-12-05T07:46:25;2.30;99.90
6379;DHT22;3222;48.858;10.128;2022-12-05T07:48:51;2.40;99.90
6379;DHT22;3222;48.858;10.128;2022-12-05T07:51:18;2.40;99.90
6379;DHT22;3222;48.858;10.128;2022-12-05T07:53:45;2.50;99.90
6379;DHT22;3222;48.858;10.128;2022-12-05T07:56:13;2.70;99.90
6379;DHT22;3222;48.858;10.128;2022-12-05T07:58:41;2.90;99.90
6379;DHT22;3222;48.858;10.128;2022-12-05T08:01:15;3.00;99.90
6379;DHT22;3222;48.858;10.128;2022-12-05T08:03:42;3.00;99.90
6379;DHT22;3222;48.858;10.128;2022-12-05T08:06:12;2.90;99.90
6379;DHT22;3222;48.858;10.128;2022-12-05T08:08:38;2.90;99.90
6379;DHT22;3222;48.858;10.128;2022-12-05T08:11:07;3.00;99.90
6379;DHT22;3222;48.858;10.128;2022-12-05T08:13:33;2.90;99.90
6379;DHT22;3222;48.858;10.128;2022-12-05T08:16:01;2.90;99.90
6379;DHT22;3222;48.858;10.128;2022-12-05T08:18:27;2.80;99.90
6379;DHT22;3222;48.858;10.128;2022-12-05T08:20:53;2.80;99.90
6379;DHT22;3222;48.858;10.128;2022-12-05T08:23:18;2.80;99.90
6379;DHT22;3222;48.858;10.128;2022-12-05T08:25:44;2.80;99.90
6379;DHT22;3222;48.858;10.128;2022-12-05T08:28:10;2.70;99.90
6379;DHT22;3222;48.858;10.128;2022-12-05T08:30:35;2.50;99.90
6379;DHT22;3222;48.858;10.128;2022-12-05T08:33:01;2.50;99.90
6379;DHT22;3222;48.858;10.128;2022-12-05T08:35:27;2.50;99.90
6379;DHT22;3222;48.858;10.128;2022-12-05T08:37:52;2.50;99.90
6379;DHT22;3222;48.858;10.128;2022-12-05T08:40:18;2.60;99.90
6379;DHT22;3222;48.858;10.128;2022-12-05T08:42:43;2.60;99.90
6379;DHT22;3222;48.858;10.128;2022-12-05T08:45:09;2.50;99.90
6379;DHT22;3222;48.858;10.128;2022-12-05T08:47:35;2.40;99.90
6379;DHT22;3222;48.858;10.128;2022-12-05T08:50:01;2.40;99.90
6379;DHT22;3222;48.858;10.128;2022-12-05T08:52:26;2.40;99.90
6379;DHT22;3222;48.858;10.128;2022-12-05T08:54:52;2.40;99.90
6379;DHT22;3222;48.858;10.128;2022-12-05T08:57:17;2.40;99.90
6379;DHT22;3222;48.858;10.128;2022-12-05T08:59:43;2.40;99.90
6379;DHT22;3222;48.858;10.128;2022-12-05T09:02:09;2.40;99.90
6379;DHT22;3222;48.858;10.128;2022-12-05T09:04:35;2.40;99.90
6379;DHT22;3222;48.858;10.128;2022-12-05T09:07:02;2.40;99.90
6379;DHT22;3222;48.858;10.128;2022-12-05T09:09:28;2.40;99.90
6379;DHT22;3222;48.858;10.128;2022-12-05T09:11:54;2.60;99.90
6379;DHT22;3222;48.858;10.128;2022-12-05T09:14:20;2.60;99.90
6379;DHT22;3222;48.858;10.128;2022-12-05T09:16:46;2.50;99.90
6379;DHT22;3222;48.858;10.128;2022-12-05T09:19:17;2.50;99.90
6379;DHT22;3222;48.858;10.128;2022-12-05T09:21:45;2.50;99.90
6379;DHT22;3222;48.858;10.128;2022-12-05T09:24:12;2.50;99.90
6379;DHT22;3222;48.858;10.128;2022-12-05T09:26:39;2.50;99.90
6379;DHT22;3222;48.858;10.128;2022-12-05T09:29:04;2.50;99.90
6379;DHT22;3222;48.858;10.128;2022-12-05T09:31:30;2.60;99.90
6379;DHT22;3222;48.858;10.128;2022-12-05T09:33:56;2.60;99.90
6379;DHT22;3222;48.858;10.128;2022-12-05T09:36:28;2.60;99.90
6379;DHT22;3222;48.858;10.128;2022-12-05T09:38:57;2.70;99.90
6379;DHT22;3222;48.858;10.128;2022-12-05T09:47:08;2.90;99.90
6379;DHT22;3222;48.858;10.128;2022-12-05T09:49:48;2.80;99.90
6379;DHT22;3222;48.858;10.128;2022-12-05T09:52:27;3.00;99.90
6379;DHT22;3222;48.858;10.128;2022-12-05T09:54:53;3.00;99.90
6379;DHT22;3222;48.858;10.128;2022-12-05T09:57:46;3.10;99.90
6379;DHT22;3222;48.858;10.128;2022-12-05T10:00:14;3.00;99.90
6379;DHT22;3222;48.858;10.128;2022-12-05T10:02:52;2.90;99.90
6379;DHT22;3222;48.858;10.128;2022-12-05T10:05:28;2.80;99.90
6379;DHT22;3222;48.858;10.128;2022-12-05T10:08:26;2.80;99.90
6379;DHT22;3222;48.858;10.128;2022-12-05T10:11:11;3.00;99.90
6379;DHT22;3222;48.858;10.128;2022-12-05T10:19:14;2.80;99.90
6379;DHT22;3222;48.858;10.128;2022-12-05T10:21:54;2.80;99.90
6379;DHT22;3222;48.858;10.128;2022-12-05T10:24:28;2.80;99.90
6379;DHT22;3222;48.858;10.128;2022-12-05T10:27:05;2.70;99.90
6379;DHT22;3222;48.858;10.128;2022-12-05T10:29:39;2.70;99.90
6379;DHT22;3222;48.858;10.128;2022-12-05T10:32:14;2.70;99.90
6379;DHT22;3222;48.858;10.128;2022-12-05T10:34:43;2.70;99.90
6379;DHT22;3222;48.858;10.128;2022-12-05T10:37:18;2.70;99.90
6379;DHT22;3222;48.858;10.128;2022-12-05T10:39:45;2.70;99.90
6379;DHT22;3222;48.858;10.128;2022-12-05T10:42:15;2.70;99.90
6379;DHT22;3222;48.858;10.128;2022-12-05T10:44:42;2.70;99.90
6379;DHT22;3222;48.858;10.128;2022-12-05T10:47:09;2.80;99.90
6379;DHT22;3222;48.858;10.128;2022-12-05T10:49:36;2.90;99.90
6379;DHT22;3222;48.858;10.128;2022-12-05T10:52:03;2.90;99.90
6379;DHT22;3222;48.858;10.128;2022-12-05T10:54:31;2.80;99.90
6379;DHT22;3222;48.858;10.128;2022-12-05T10:56:57;2.80;99.90
6379;DHT22;3222;48.858;10.128;2022-12-05T10:59:25;2.80;99.90
6379;DHT22;3222;48.858;10.128;2022-12-05T11:01:56;2.80;99.90
6379;DHT22;3222;48.858;10.128;2022-12-05T11:04:29;2.90;99.90
6379;DHT22;3222;48.858;10.128;2022-12-05T11:07:01;2.90;99.90
6379;DHT22;3222;48.858;10.128;2022-12-05T11:09:30;2.90;99.90
6379;DHT22;3222;48.858;10.128;2022-12-05T11:14:31;3.00;99.90
6379;DHT22;3222;48.858;10.128;2022-12-05T11:17:00;3.10;99.90
6379;DHT22;3222;48.858;10.128;2022-12-05T11:19:37;3.10;99.90
6379;DHT22;3222;48.858;10.128;2022-12-05T11:22:04;3.10;99.90
6379;DHT22;3222;48.858;10.128;2022-12-05T11:24:34;3.00;99.90
6379;DHT22;3222;48.858;10.128;2022-12-05T11:29:43;3.00;99.90
6379;DHT22;3222;48.858;10.128;2022-12-05T11:32:22;2.90;99.90
6379;DHT22;3222;48.858;10.128;2022-12-05T11:35:17;2.90;99.90
6379;DHT22;3222;48.858;10.128;2022-12-05T11:40:20;3.00;99.90
6379;DHT22;3222;48.858;10.128;2022-12-05T11:45:42;3.20;99.90
6379;DHT22;3222;48.858;10.128;2022-12-05T11:48:15;3.30;99.90
6379;DHT22;3222;48.858;10.128;2022-12-05T11:51:10;3.30;99.90
6379;DHT22;3222;48.858;10.128;2022-12-05T11:59:09;3.10;99.90
6379;DHT22;3222;48.858;10.128;2022-12-05T12:04:42;3.10;99.90
6379;DHT22;3222;48.858;10.128;2022-12-05T12:19:02;3.10;99.90
6379;DHT22;3222;48.858;10.128;2022-12-05T12:21:50;3.10;99.90
6379;DHT22;3222;48.858;10.128;2022-12-05T12:27:00;3.20;99.90
6379;DHT22;3222;48.858;10.128;2022-12-05T12:29:47;3.20;99.90
6379;DHT22;3222;48.858;10.128;2022-12-05T12:35:29;3.20;99.90
6379;DHT22;3222;48.858;10.128;2022-12-05T12:38:11;3.20;99.90
6379;DHT22;3222;48.858;10.128;2022-12-05T12:40:54;3.10;99.90
6379;DHT22;3222;48.858;10.128;2022-12-05T12:46:13;3.20;99.90
6379;DHT22;3222;48.858;10.128;2022-12-05T12:51:12;3.30;99.90
6379;DHT22;3222;48.858;10.128;2022-12-05T12:57:12;3.30;99.90
6379;DHT22;3222;48.858;10.128;2022-12-05T13:00:00;3.40;99.90
6379;DHT22;3222;48.858;10.128;2022-12-05T13:02:56;3.40;99.90
6379;DHT22;3222;48.858;10.128;2022-12-05T13:05:38;3.40;99.90
6379;DHT22;3222;48.858;10.128;2022-12-05T13:08:26;3.50;99.90
6379;DHT22;3222;48.858;10.128;2022-12-05T13:10:53;3.50;99.90
6379;DHT22;3222;48.858;10.128;2022-12-05T13:13:24;3.40;99.90
6379;DHT22;3222;48.858;10.128;2022-12-05T13:15:54;3.50;99.90
6379;DHT22;3222;48.858;10.128;2022-12-05T13:18:23;3.40;99.90
6379;DHT22;3222;48.858;10.128;2022-12-05T13:20:53;3.50;99.90
6379;DHT22;3222;48.858;10.128;2022-12-05T13:23:26;3.40;99.90
6379;DHT22;3222;48.858;10.128;2022-12-05T13:25:55;3.40;99.90
6379;DHT22;3222;48.858;10.128;2022-12-05T13:28:37;3.40;99.90
6379;DHT22;3222;48.858;10.128;2022-12-05T13:31:09;3.50;99.90
6379;DHT22;3222;48.858;10.128;2022-12-05T13:33:44;3.40;99.90
6379;DHT22;3222;48.858;10.128;2022-12-05T13:36:37;3.40;99.90
6379;DHT22;3222;48.858;10.128;2022-12-05T13:39:23;3.40;99.90
6379;DHT22;3222;48.858;10.128;2022-12-05T13:42:22;3.40;99.90
6379;DHT22;3222;48.858;10.128;2022-12-05T13:45:04;3.40;99.90
6379;DHT22;3222;48.858;10.128;2022-12-05T13:52:43;3.40;99.90
6379;DHT22;3222;48.858;10.128;2022-12-05T14:07:53;3.50;99.90
6379;DHT22;3222;48.858;10.128;2022-12-05T14:15:42;3.40;99.90
6379;DHT22;3222;48.858;10.128;2022-12-05T14:32:20;3.50;99.90
6379;DHT22;3222;48.858;10.128;2022-12-05T14:40:27;3.40;99.90
6379;DHT22;3222;48.858;10.128;2022-12-05T14:42:53;3.40;99.90
6379;DHT22;3222;48.858;10.128;2022-12-05T14:45:28;3.40;99.90
6379;DHT22;3222;48.858;10.128;2022-12-05T14:48:00;3.40;99.90
6379;DHT22;3222;48.858;10.128;2022-12-05T14:50:47;3.40;99.90
6379;DHT22;3222;48.858;10.128;2022-12-05T14:55:57;3.40;99.90
6379;DHT22;3222;48.858;10.128;2022-12-05T15:01:26;3.40;99.90
6379;DHT22;3222;48.858;10.128;2022-12-05T15:06:57;3.40;99.90
6379;DHT22;3222;48.858;10.128;2022-12-05T15:11:52;3.40;99.90
6379;DHT22;3222;48.858;10.128;2022-12-05T15:14:21;3.40;99.90
6379;DHT22;3222;48.858;10.128;2022-12-05T15:16:49;3.30;99.90
6379;DHT22;3222;48.858;10.128;2022-12-05T15:19:44;3.30;99.90
6379;DHT22;3222;48.858;10.128;2022-12-05T15:22:12;3.30;99.90
6379;DHT22;3222;48.858;10.128;2022-12-05T15:24:39;3.30;99.90
6379;DHT22;3222;48.858;10.128;2022-12-05T15:27:09;3.30;99.90
6379;DHT22;3222;48.858;10.128;2022-12-05T15:29:39;3.30;99.90
6379;DHT22;3222;48.858;10.128;2022-12-05T15:37:28;3.30;99.90
6379;DHT22;3222;48.858;10.128;2022-12-05T15:47:38;3.20;99.90
6379;DHT22;3222;48.858;10.128;2022-12-05T15:50:04;3.20;99.90
6379;DHT22;3222;48.858;10.128;2022-12-05T15:52:36;3.20;99.90
6379;DHT22;3222;48.858;10.128;2022-12-05T15:55:10;3.20;99.90
6379;DHT22;3222;48.858;10.128;2022-12-05T15:57:42;3.20;99.90
6379;DHT22;3222;48.858;10.128;2022-12-05T16:00:16;3.20;99.90
6379;DHT22;3222;48.858;10.128;2022-12-05T16:05:40;3.20;99.90
6379;DHT22;3222;48.858;10.128;2022-12-05T16:08:07;3.20;99.90
6379;DHT22;3222;48.858;10.128;2022-12-05T16:10:33;3.20;99.90
6379;DHT22;3222;48.858;10.128;2022-12-05T16:13:05;3.30;99.90
6379;DHT22;3222;48.858;10.128;2022-12-05T16:15:32;3.30;99.90
6379;DHT22;3222;48.858;10.128;2022-12-05T16:18:03;3.30;99.90
6379;DHT22;3222;48.858;10.128;2022-12-05T16:20:33;3.30;99.90
6379;DHT22;3222;48.858;10.128;2022-12-05T16:23:01;3.20;99.90
6379;DHT22;3222;48.858;10.128;2022-12-05T16:25:34;3.20;99.90
6379;DHT22;3222;48.858;10.128;2022-12-05T16:28:13;3.20;99.90
6379;DHT22;3222;48.858;10.128;2022-12-05T16:30:50;3.30;99.90
6379;DHT22;3222;48.858;10.128;2022-12-05T16:33:16;3.30;99.90
6379;DHT22;3222;48.858;10.128;2022-12-05T16:35:44;3.30;99.90
6379;DHT22;3222;48.858;10.128;2022-12-05T16:38:28;3.30;99.90
6379;DHT22;3222;48.858;10.128;2022-12-05T16:41:02;3.40;99.90
6379;DHT22;3222;48.858;10.128;2022-12-05T16:46:30;3.60;99.90
6379;DHT22;3222;48.858;10.128;2022-12-05T16:49:14;3.50;99.90
6379;DHT22;3222;48.858;10.128;2022-12-05T16:51:43;3.40;99.90
6379;DHT22;3222;48.858;10.128;2022-12-05T16:54:09;3.40;99.90
6379;DHT22;3222;48.858;10.128;2022-12-05T16:56:35;3.30;99.90
6379;DHT22;3222;48.858;10.128;2022-12-05T16:59:05;3.30;99.90
6379;DHT22;3222;48.858;10.128;2022-12-05T17:01:31;3.30;99.90
6379;DHT22;3222;48.858;10.128;2022-12-05T17:03:58;3.30;99.90
6379;DHT22;3222;48.858;10.128;2022-12-05T17:06:25;3.20;99.90
6379;DHT22;3222;48.858;10.128;2022-12-05T17:08:51;3.20;99.90
6379;DHT22;3222;48.858;10.128;2022-12-05T17:11:23;3.20;99.90
6379;DHT22;3222;48.858;10.128;2022-12-05T17:13:51;3.20;99.90
6379;DHT22;3222;48.858;10.128;2022-12-05T17:16:18;3.20;99.90
6379;DHT22;3222;48.858;10.128;2022-12-05T17:18:45;3.20;99.90
6379;DHT22;3222;48.858;10.128;2022-12-05T17:21:16;3.20;99.90
6379;DHT22;3222;48.858;10.128;2022-12-05T17:23:43;3.20;99.90
6379;DHT22;3222;48.858;10.128;2022-12-05T17:26:12;3.20;99.90
6379;DHT22;3222;48.858;10.128;2022-12-05T17:28:38;3.20;99.90
6379;DHT22;3222;48.858;10.128;2022-12-05T17:31:05;3.20;99.90
6379;DHT22;3222;48.858;10.128;2022-12-05T17:33:31;3.20;99.90
6379;DHT22;3222;48.858;10.128;2022-12-05T17:35:57;3.20;99.90
6379;DHT22;3222;48.858;10.128;2022-12-05T17:38:22;3.20;99.90
6379;DHT22;3222;48.858;10.128;2022-12-05T17:40:48;3.20;99.90
6379;DHT22;3222;48.858;10.128;2022-12-05T17:43:14;3.20;99.90
6379;DHT22;3222;48.858;10.128;2022-12-05T17:45:41;3.20;99.90
6379;DHT22;3222;48.858;10.128;2022-12-05T17:48:11;3.20;99.90
6379;DHT22;3222;48.858;10.128;2022-12-05T17:50:39;3.20;99.90
6379;DHT22;3222;48.858;10.128;2022-12-05T17:53:05;3.20;99.90
6379;DHT22;3222;48.858;10.128;2022-12-05T17:55:31;3.20;99.90
6379;DHT22;3222;48.858;10.128;2022-12-05T17:57:56;3.20;99.90
6379;DHT22;3222;48.858;10.128;2022-12-05T18:00:23;3.20;99.90
6379;DHT22;3222;48.858;10.128;2022-12-05T18:02:49;3.20;99.90
6379;DHT22;3222;48.858;10.128;2022-12-05T18:05:16;3.30;99.90
6379;DHT22;3222;48.858;10.128;2022-12-05T18:07:43;3.20;99.90
6379;DHT22;3222;48.858;10.128;2022-12-05T18:10:12;3.20;99.90
6379;DHT22;3222;48.858;10.128;2022-12-05T18:12:38;3.20;99.90
6379;DHT22;3222;48.858;10.128;2022-12-05T18:15:05;3.20;99.90
6379;DHT22;3222;48.858;10.128;2022-12-05T18:17:31;3.10;99.90
6379;DHT22;3222;48.858;10.128;2022-12-05T18:19:57;3.10;99.90
6379;DHT22;3222;48.858;10.128;2022-12-05T18:22:24;3.10;99.90
6379;DHT22;3222;48.858;10.128;2022-12-05T18:24:50;3.10;99.90
6379;DHT22;3222;48.858;10.128;2022-12-05T18:27:16;3.10;99.90
6379;DHT22;3222;48.858;10.128;2022-12-05T18:29:42;3.10;99.90
6379;DHT22;3222;48.858;10.128;2022-12-05T18:32:08;3.10;99.90
6379;DHT22;3222;48.858;10.128;2022-12-05T18:34:34;3.10;99.90
6379;DHT22;3222;48.858;10.128;2022-12-05T18:37:00;3.10;99.90
6379;DHT22;3222;48.858;10.128;2022-12-05T18:39:25;3.20;99.90
6379;DHT22;3222;48.858;10.128;2022-12-05T18:41:52;3.20;99.90
6379;DHT22;3222;48.858;10.128;2022-12-05T18:44:18;3.20;99.90
6379;DHT22;3222;48.858;10.128;2022-12-05T18:46:44;3.20;99.90
6379;DHT22;3222;48.858;10.128;2022-12-05T18:49:11;3.20;99.90
6379;DHT22;3222;48.858;10.128;2022-12-05T18:51:37;3.10;99.90
6379;DHT22;3222;48.858;10.128;2022-12-05T18:54:03;3.20;99.90
6379;DHT22;3222;48.858;10.128;2022-12-05T18:56:30;3.10;99.90
6379;DHT22;3222;48.858;10.128;2022-12-05T18:59:07;3.20;99.90
6379;DHT22;3222;48.858;10.128;2022-12-05T19:01:34;3.20;99.90
6379;DHT22;3222;48.858;10.128;2022-12-05T19:04:02;3.20;99.90
6379;DHT22;3222;48.858;10.128;2022-12-05T19:06:30;3.20;99.90
6379;DHT22;3222;48.858;10.128;2022-12-05T19:08:58;3.20;99.90